East Haddonfield, New Jersey
Current Conditions -  °F | °C
As of 1:54 AM on Saturday 25 Oct 2014 (Local Time) from KPHL Reporting Station
Few Clouds Few Clouds  
Wind Chill: 55°   Ceiling: Unl
Heat Index: 55°   Visibility: 10mi
Dew Point: 37°   Wind: 8mph
Humidity: 51%   Direction: 310°NW
Pressure: 29.9"   Gusts: NA
Location:  39.8934°N, 75.0387°W
Report Text: KPHL 250554Z 31007KT 10SM FEW250 13/03 A2990 RMK AO2 SLP124 T01280028 10167 20117 51005
Loading
Personal Weather Stations






























Interactive Weather Map
Tropical Storm Tracking
New forecast layout! Learn more

10-Day Weather Forecast

Advertisements
Track Severe Weather on mobile